sensor_id;sensor_type;location;lat;lon;timestamp;P1;durP1;ratioP1;P2;durP2;ratioP2
24833;SDS011;12914;43.702;22.862;2022-08-25T00:00:10;25.17;;;20.63;;
24833;SDS011;12914;43.702;22.862;2022-08-25T00:02:36;28.90;;;20.00;;
24833;SDS011;12914;43.702;22.862;2022-08-25T00:05:02;32.20;;;20.35;;
24833;SDS011;12914;43.702;22.862;2022-08-25T00:07:28;26.20;;;20.13;;
24833;SDS011;12914;43.702;22.862;2022-08-25T00:09:55;29.15;;;20.23;;
24833;SDS011;12914;43.702;22.862;2022-08-25T00:12:20;32.17;;;21.13;;
24833;SDS011;12914;43.702;22.862;2022-08-25T00:14:46;31.30;;;21.55;;
24833;SDS011;12914;43.702;22.862;2022-08-25T00:17:12;30.75;;;20.45;;
24833;SDS011;12914;43.702;22.862;2022-08-25T00:19:39;24.33;;;18.95;;
24833;SDS011;12914;43.702;22.862;2022-08-25T00:22:05;28.40;;;20.33;;
24833;SDS011;12914;43.702;22.862;2022-08-25T00:24:32;29.98;;;20.45;;
24833;SDS011;12914;43.702;22.862;2022-08-25T00:26:57;28.10;;;20.08;;
24833;SDS011;12914;43.702;22.862;2022-08-25T00:29:25;31.92;;;20.48;;
24833;SDS011;12914;43.702;22.862;2022-08-25T00:31:53;31.15;;;21.15;;
24833;SDS011;12914;43.702;22.862;2022-08-25T00:34:24;28.85;;;19.77;;
24833;SDS011;12914;43.702;22.862;2022-08-25T00:36:52;26.65;;;19.23;;
24833;SDS011;12914;43.702;22.862;2022-08-25T00:39:19;30.58;;;19.42;;
24833;SDS011;12914;43.702;22.862;2022-08-25T00:41:46;35.97;;;19.98;;
24833;SDS011;12914;43.702;22.862;2022-08-25T00:44:13;36.45;;;21.02;;
24833;SDS011;12914;43.702;22.862;2022-08-25T00:46:43;30.20;;;20.50;;
24833;SDS011;12914;43.702;22.862;2022-08-25T00:49:29;27.17;;;20.98;;
24833;SDS011;12914;43.702;22.862;2022-08-25T00:52:21;28.63;;;21.48;;
24833;SDS011;12914;43.702;22.862;2022-08-25T00:55:01;31.88;;;21.20;;
24833;SDS011;12914;43.702;22.862;2022-08-25T00:57:32;29.67;;;20.45;;
24833;SDS011;12914;43.702;22.862;2022-08-25T01:00:04;34.75;;;21.05;;
24833;SDS011;12914;43.702;22.862;2022-08-25T01:02:34;31.25;;;19.30;;
24833;SDS011;12914;43.702;22.862;2022-08-25T01:05:00;27.10;;;20.65;;
24833;SDS011;12914;43.702;22.862;2022-08-25T01:07:25;24.42;;;18.75;;
24833;SDS011;12914;43.702;22.862;2022-08-25T01:09:51;26.48;;;19.13;;
24833;SDS011;12914;43.702;22.862;2022-08-25T01:12:17;29.55;;;19.40;;
24833;SDS011;12914;43.702;22.862;2022-08-25T01:14:43;26.70;;;19.70;;
24833;SDS011;12914;43.702;22.862;2022-08-25T01:17:10;26.05;;;19.75;;
24833;SDS011;12914;43.702;22.862;2022-08-25T01:19:36;28.27;;;19.67;;
24833;SDS011;12914;43.702;22.862;2022-08-25T01:22:02;31.08;;;20.83;;
24833;SDS011;12914;43.702;22.862;2022-08-25T01:27:01;29.90;;;19.45;;
24833;SDS011;12914;43.702;22.862;2022-08-25T01:29:28;29.27;;;20.13;;
24833;SDS011;12914;43.702;22.862;2022-08-25T01:31:56;26.08;;;19.08;;
24833;SDS011;12914;43.702;22.862;2022-08-25T01:34:24;26.02;;;18.90;;
24833;SDS011;12914;43.702;22.862;2022-08-25T01:36:53;28.38;;;18.60;;
24833;SDS011;12914;43.702;22.862;2022-08-25T01:39:20;29.17;;;20.30;;
24833;SDS011;12914;43.702;22.862;2022-08-25T01:46:52;28.45;;;19.20;;
24833;SDS011;12914;43.702;22.862;2022-08-25T01:49:18;31.15;;;18.67;;
24833;SDS011;12914;43.702;22.862;2022-08-25T01:51:46;30.30;;;20.25;;
24833;SDS011;12914;43.702;22.862;2022-08-25T01:54:15;29.70;;;19.15;;
24833;SDS011;12914;43.702;22.862;2022-08-25T01:56:41;28.08;;;18.67;;
24833;SDS011;12914;43.702;22.862;2022-08-25T01:59:07;23.02;;;19.13;;
24833;SDS011;12914;43.702;22.862;2022-08-25T02:01:32;30.05;;;19.52;;
24833;SDS011;12914;43.702;22.862;2022-08-25T02:03:58;28.25;;;18.55;;
24833;SDS011;12914;43.702;22.862;2022-08-25T02:06:28;31.80;;;19.17;;
24833;SDS011;12914;43.702;22.862;2022-08-25T02:08:57;22.77;;;17.30;;
24833;SDS011;12914;43.702;22.862;2022-08-25T02:11:25;25.27;;;18.25;;
24833;SDS011;12914;43.702;22.862;2022-08-25T02:13:51;29.77;;;16.73;;
24833;SDS011;12914;43.702;22.862;2022-08-25T02:16:24;20.67;;;15.25;;
24833;SDS011;12914;43.702;22.862;2022-08-25T02:18:54;28.35;;;14.75;;
24833;SDS011;12914;43.702;22.862;2022-08-25T02:21:20;25.90;;;15.15;;
24833;SDS011;12914;43.702;22.862;2022-08-25T02:23:46;20.05;;;13.02;;
24833;SDS011;12914;43.702;22.862;2022-08-25T02:26:12;26.58;;;14.95;;
24833;SDS011;12914;43.702;22.862;2022-08-25T02:28:41;26.65;;;14.98;;
24833;SDS011;12914;43.702;22.862;2022-08-25T02:31:07;22.90;;;15.57;;
24833;SDS011;12914;43.702;22.862;2022-08-25T02:33:32;27.58;;;17.33;;
24833;SDS011;12914;43.702;22.862;2022-08-25T02:35:58;24.85;;;17.52;;
24833;SDS011;12914;43.702;22.862;2022-08-25T02:38:25;20.77;;;17.02;;
24833;SDS011;12914;43.702;22.862;2022-08-25T02:40:53;26.92;;;18.15;;
24833;SDS011;12914;43.702;22.862;2022-08-25T02:43:20;23.92;;;16.48;;
24833;SDS011;12914;43.702;22.862;2022-08-25T02:45:45;27.35;;;15.82;;
24833;SDS011;12914;43.702;22.862;2022-08-25T02:48:11;26.92;;;14.93;;
24833;SDS011;12914;43.702;22.862;2022-08-25T02:50:36;23.25;;;13.77;;
24833;SDS011;12914;43.702;22.862;2022-08-25T02:53:02;23.05;;;15.57;;
24833;SDS011;12914;43.702;22.862;2022-08-25T02:55:27;23.45;;;16.08;;
24833;SDS011;12914;43.702;22.862;2022-08-25T02:57:53;30.23;;;16.73;;
24833;SDS011;12914;43.702;22.862;2022-08-25T03:00:19;25.08;;;17.50;;
24833;SDS011;12914;43.702;22.862;2022-08-25T03:02:45;27.73;;;18.45;;
24833;SDS011;12914;43.702;22.862;2022-08-25T03:05:12;28.50;;;16.48;;
24833;SDS011;12914;43.702;22.862;2022-08-25T03:07:38;21.90;;;16.60;;
24833;SDS011;12914;43.702;22.862;2022-08-25T03:10:14;29.15;;;15.60;;
24833;SDS011;12914;43.702;22.862;2022-08-25T03:12:42;23.25;;;13.43;;
24833;SDS011;12914;43.702;22.862;2022-08-25T03:15:09;23.17;;;13.00;;
24833;SDS011;12914;43.702;22.862;2022-08-25T03:17:37;19.65;;;11.88;;
24833;SDS011;12914;43.702;22.862;2022-08-25T03:20:04;17.90;;;10.88;;
24833;SDS011;12914;43.702;22.862;2022-08-25T03:22:30;17.55;;;11.38;;
24833;SDS011;12914;43.702;22.862;2022-08-25T03:24:55;19.02;;;10.90;;
24833;SDS011;12914;43.702;22.862;2022-08-25T03:27:41;20.50;;;11.10;;
24833;SDS011;12914;43.702;22.862;2022-08-25T03:30:06;16.65;;;10.25;;
24833;SDS011;12914;43.702;22.862;2022-08-25T03:32:33;17.38;;;10.70;;
24833;SDS011;12914;43.702;22.862;2022-08-25T03:34:58;17.02;;;10.88;;
24833;SDS011;12914;43.702;22.862;2022-08-25T03:37:26;16.02;;;9.43;;
24833;SDS011;12914;43.702;22.862;2022-08-25T03:39:51;17.42;;;10.18;;
24833;SDS011;12914;43.702;22.862;2022-08-25T03:42:17;21.95;;;9.88;;
24833;SDS011;12914;43.702;22.862;2022-08-25T03:44:43;15.18;;;9.63;;
24833;SDS011;12914;43.702;22.862;2022-08-25T03:47:09;16.17;;;10.00;;
24833;SDS011;12914;43.702;22.862;2022-08-25T03:49:35;16.90;;;9.30;;
24833;SDS011;12914;43.702;22.862;2022-08-25T03:52:00;20.05;;;10.30;;
24833;SDS011;12914;43.702;22.862;2022-08-25T03:54:26;18.83;;;9.50;;
24833;SDS011;12914;43.702;22.862;2022-08-25T03:56:52;18.33;;;8.98;;
24833;SDS011;12914;43.702;22.862;2022-08-25T03:59:17;17.20;;;10.15;;
24833;SDS011;12914;43.702;22.862;2022-08-25T04:01:44;16.38;;;8.93;;
24833;SDS011;12914;43.702;22.862;2022-08-25T04:04:11;17.92;;;9.98;;
24833;SDS011;12914;43.702;22.862;2022-08-25T04:06:38;18.17;;;9.95;;
24833;SDS011;12914;43.702;22.862;2022-08-25T04:09:05;19.75;;;10.90;;
24833;SDS011;12914;43.702;22.862;2022-08-25T04:11:31;16.63;;;9.45;;
24833;SDS011;12914;43.702;22.862;2022-08-25T04:13:57;18.83;;;10.05;;
24833;SDS011;12914;43.702;22.862;2022-08-25T04:16:26;18.08;;;9.95;;
24833;SDS011;12914;43.702;22.862;2022-08-25T04:18:55;14.67;;;9.47;;
24833;SDS011;12914;43.702;22.862;2022-08-25T04:21:22;15.10;;;9.13;;
24833;SDS011;12914;43.702;22.862;2022-08-25T04:23:49;15.50;;;9.35;;
24833;SDS011;12914;43.702;22.862;2022-08-25T04:26:29;16.25;;;9.23;;
24833;SDS011;12914;43.702;22.862;2022-08-25T04:28:57;15.88;;;8.95;;
24833;SDS011;12914;43.702;22.862;2022-08-25T04:31:25;28.13;;;10.18;;
24833;SDS011;12914;43.702;22.862;2022-08-25T04:33:52;16.55;;;10.02;;
24833;SDS011;12914;43.702;22.862;2022-08-25T04:36:18;18.77;;;10.18;;
24833;SDS011;12914;43.702;22.862;2022-08-25T04:38:45;18.80;;;10.15;;
24833;SDS011;12914;43.702;22.862;2022-08-25T04:41:12;19.70;;;9.93;;
24833;SDS011;12914;43.702;22.862;2022-08-25T04:43:39;16.45;;;10.02;;
24833;SDS011;12914;43.702;22.862;2022-08-25T04:46:07;16.35;;;9.02;;
24833;SDS011;12914;43.702;22.862;2022-08-25T04:48:36;18.15;;;9.00;;
24833;SDS011;12914;43.702;22.862;2022-08-25T04:51:07;15.30;;;9.38;;
24833;SDS011;12914;43.702;22.862;2022-08-25T04:56:01;20.20;;;9.88;;
24833;SDS011;12914;43.702;22.862;2022-08-25T04:58:30;16.27;;;10.23;;
24833;SDS011;12914;43.702;22.862;2022-08-25T05:01:09;16.88;;;9.55;;
24833;SDS011;12914;43.702;22.862;2022-08-25T05:03:39;18.27;;;9.27;;
24833;SDS011;12914;43.702;22.862;2022-08-25T05:06:05;18.42;;;8.27;;
24833;SDS011;12914;43.702;22.862;2022-08-25T05:08:32;14.73;;;8.68;;
24833;SDS011;12914;43.702;22.862;2022-08-25T05:10:58;15.57;;;9.50;;
24833;SDS011;12914;43.702;22.862;2022-08-25T05:13:24;16.67;;;8.77;;
24833;SDS011;12914;43.702;22.862;2022-08-25T05:15:55;18.45;;;9.40;;
24833;SDS011;12914;43.702;22.862;2022-08-25T05:18:23;21.15;;;10.23;;
24833;SDS011;12914;43.702;22.862;2022-08-25T05:20:52;12.93;;;9.20;;
24833;SDS011;12914;43.702;22.862;2022-08-25T05:23:19;16.23;;;8.95;;
24833;SDS011;12914;43.702;22.862;2022-08-25T05:25:46;15.43;;;9.38;;
24833;SDS011;12914;43.702;22.862;2022-08-25T05:28:13;11.15;;;7.85;;
24833;SDS011;12914;43.702;22.862;2022-08-25T05:30:40;16.13;;;8.20;;
24833;SDS011;12914;43.702;22.862;2022-08-25T05:33:07;13.30;;;6.95;;
24833;SDS011;12914;43.702;22.862;2022-08-25T05:35:34;14.18;;;7.30;;
24833;SDS011;12914;43.702;22.862;2022-08-25T05:38:00;16.00;;;7.82;;
24833;SDS011;12914;43.702;22.862;2022-08-25T05:40:26;14.93;;;7.68;;
24833;SDS011;12914;43.702;22.862;2022-08-25T05:42:52;15.18;;;7.03;;
24833;SDS011;12914;43.702;22.862;2022-08-25T05:45:18;17.42;;;7.43;;
24833;SDS011;12914;43.702;22.862;2022-08-25T05:47:44;18.02;;;7.03;;
24833;SDS011;12914;43.702;22.862;2022-08-25T05:50:10;14.35;;;6.85;;
24833;SDS011;12914;43.702;22.862;2022-08-25T05:52:35;13.38;;;6.50;;
24833;SDS011;12914;43.702;22.862;2022-08-25T05:55:01;15.10;;;5.60;;
24833;SDS011;12914;43.702;22.862;2022-08-25T05:57:27;12.18;;;6.78;;
24833;SDS011;12914;43.702;22.862;2022-08-25T05:59:53;11.77;;;6.55;;
24833;SDS011;12914;43.702;22.862;2022-08-25T06:02:18;14.85;;;7.00;;
24833;SDS011;12914;43.702;22.862;2022-08-25T06:05:02;11.70;;;5.88;;
24833;SDS011;12914;43.702;22.862;2022-08-25T06:07:28;12.38;;;6.93;;
24833;SDS011;12914;43.702;22.862;2022-08-25T06:09:54;12.70;;;6.32;;
24833;SDS011;12914;43.702;22.862;2022-08-25T06:12:19;17.40;;;6.78;;
24833;SDS011;12914;43.702;22.862;2022-08-25T06:14:46;9.85;;;6.40;;
24833;SDS011;12914;43.702;22.862;2022-08-25T06:17:13;15.32;;;6.10;;
24833;SDS011;12914;43.702;22.862;2022-08-25T06:19:40;12.77;;;6.85;;
24833;SDS011;12914;43.702;22.862;2022-08-25T06:22:05;14.98;;;8.57;;
24833;SDS011;12914;43.702;22.862;2022-08-25T06:24:31;10.00;;;7.45;;
24833;SDS011;12914;43.702;22.862;2022-08-25T06:26:57;16.58;;;7.00;;
24833;SDS011;12914;43.702;22.862;2022-08-25T06:29:23;14.10;;;6.75;;
24833;SDS011;12914;43.702;22.862;2022-08-25T06:31:49;10.98;;;6.72;;
24833;SDS011;12914;43.702;22.862;2022-08-25T06:34:15;14.25;;;7.10;;
24833;SDS011;12914;43.702;22.862;2022-08-25T06:36:41;12.93;;;7.03;;
24833;SDS011;12914;43.702;22.862;2022-08-25T06:39:07;27.00;;;11.68;;
24833;SDS011;12914;43.702;22.862;2022-08-25T06:41:33;17.05;;;8.35;;
24833;SDS011;12914;43.702;22.862;2022-08-25T06:43:59;13.82;;;7.10;;
24833;SDS011;12914;43.702;22.862;2022-08-25T06:46:25;14.40;;;8.93;;
24833;SDS011;12914;43.702;22.862;2022-08-25T06:48:52;20.35;;;7.53;;
24833;SDS011;12914;43.702;22.862;2022-08-25T06:51:19;14.95;;;6.70;;
24833;SDS011;12914;43.702;22.862;2022-08-25T06:53:46;13.95;;;7.25;;
24833;SDS011;12914;43.702;22.862;2022-08-25T06:56:17;18.10;;;8.00;;
24833;SDS011;12914;43.702;22.862;2022-08-25T06:58:43;14.68;;;6.63;;
24833;SDS011;12914;43.702;22.862;2022-08-25T07:01:11;14.55;;;6.22;;
24833;SDS011;12914;43.702;22.862;2022-08-25T07:03:39;11.55;;;6.57;;
24833;SDS011;12914;43.702;22.862;2022-08-25T07:06:06;11.43;;;7.88;;
24833;SDS011;12914;43.702;22.862;2022-08-25T07:08:32;15.05;;;6.82;;
24833;SDS011;12914;43.702;22.862;2022-08-25T07:11:09;11.75;;;6.10;;
24833;SDS011;12914;43.702;22.862;2022-08-25T07:13:36;14.23;;;5.80;;
24833;SDS011;12914;43.702;22.862;2022-08-25T07:16:03;10.90;;;8.02;;
24833;SDS011;12914;43.702;22.862;2022-08-25T07:18:30;12.98;;;6.50;;
24833;SDS011;12914;43.702;22.862;2022-08-25T07:20:56;14.30;;;7.90;;
24833;SDS011;12914;43.702;22.862;2022-08-25T07:23:22;12.40;;;6.18;;
24833;SDS011;12914;43.702;22.862;2022-08-25T07:25:48;12.30;;;5.75;;
24833;SDS011;12914;43.702;22.862;2022-08-25T07:28:15;18.40;;;6.28;;
24833;SDS011;12914;43.702;22.862;2022-08-25T07:30:42;13.13;;;6.32;;
24833;SDS011;12914;43.702;22.862;2022-08-25T07:33:08;10.10;;;6.20;;
24833;SDS011;12914;43.702;22.862;2022-08-25T07:35:34;11.18;;;5.85;;
24833;SDS011;12914;43.702;22.862;2022-08-25T07:38:01;16.20;;;5.82;;
24833;SDS011;12914;43.702;22.862;2022-08-25T07:40:36;16.38;;;6.75;;
24833;SDS011;12914;43.702;22.862;2022-08-25T07:43:04;14.57;;;5.65;;
24833;SDS011;12914;43.702;22.862;2022-08-25T07:45:35;11.43;;;5.72;;
24833;SDS011;12914;43.702;22.862;2022-08-25T07:48:04;17.52;;;7.35;;
24833;SDS011;12914;43.702;22.862;2022-08-25T07:50:33;18.10;;;6.32;;
24833;SDS011;12914;43.702;22.862;2022-08-25T07:52:59;19.17;;;5.72;;
24833;SDS011;12914;43.702;22.862;2022-08-25T07:55:26;14.98;;;5.50;;
24833;SDS011;12914;43.702;22.862;2022-08-25T07:57:54;11.70;;;5.45;;
24833;SDS011;12914;43.702;22.862;2022-08-25T08:00:21;12.95;;;5.18;;
24833;SDS011;12914;43.702;22.862;2022-08-25T08:02:47;16.85;;;5.88;;
24833;SDS011;12914;43.702;22.862;2022-08-25T08:05:13;22.50;;;5.95;;
24833;SDS011;12914;43.702;22.862;2022-08-25T08:07:39;14.98;;;5.55;;
24833;SDS011;12914;43.702;22.862;2022-08-25T08:10:06;20.17;;;6.47;;
24833;SDS011;12914;43.702;22.862;2022-08-25T08:12:33;12.52;;;5.53;;
24833;SDS011;12914;43.702;22.862;2022-08-25T08:14:59;16.83;;;5.38;;
24833;SDS011;12914;43.702;22.862;2022-08-25T08:17:25;15.00;;;5.13;;
24833;SDS011;12914;43.702;22.862;2022-08-25T08:19:51;14.15;;;5.93;;
24833;SDS011;12914;43.702;22.862;2022-08-25T08:22:16;12.75;;;5.30;;
24833;SDS011;12914;43.702;22.862;2022-08-25T08:24:42;14.68;;;5.15;;
24833;SDS011;12914;43.702;22.862;2022-08-25T08:27:10;23.65;;;4.93;;
24833;SDS011;12914;43.702;22.862;2022-08-25T08:29:38;25.48;;;5.10;;
24833;SDS011;12914;43.702;22.862;2022-08-25T08:32:05;22.27;;;4.90;;
24833;SDS011;12914;43.702;22.862;2022-08-25T08:34:32;13.95;;;5.45;;
24833;SDS011;12914;43.702;22.862;2022-08-25T08:36:58;13.23;;;4.68;;
24833;SDS011;12914;43.702;22.862;2022-08-25T08:39:24;17.60;;;5.07;;
24833;SDS011;12914;43.702;22.862;2022-08-25T08:52:45;16.90;;;4.30;;
24833;SDS011;12914;43.702;22.862;2022-08-25T08:55:32;23.48;;;4.68;;
24833;SDS011;12914;43.702;22.862;2022-08-25T08:58:02;15.95;;;3.92;;
24833;SDS011;12914;43.702;22.862;2022-08-25T09:00:32;14.20;;;3.50;;
24833;SDS011;12914;43.702;22.862;2022-08-25T09:03:06;10.55;;;3.13;;
24833;SDS011;12914;43.702;22.862;2022-08-25T09:05:55;20.17;;;4.60;;
24833;SDS011;12914;43.702;22.862;2022-08-25T09:08:24;20.27;;;3.55;;
24833;SDS011;12914;43.702;22.862;2022-08-25T09:10:58;12.57;;;3.60;;
24833;SDS011;12914;43.702;22.862;2022-08-25T09:16:31;17.75;;;3.25;;
24833;SDS011;12914;43.702;22.862;2022-08-25T09:22:29;13.63;;;3.20;;
24833;SDS011;12914;43.702;22.862;2022-08-25T09:30:10;19.95;;;3.60;;
24833;SDS011;12914;43.702;22.862;2022-08-25T09:32:43;19.08;;;3.25;;
24833;SDS011;12914;43.702;22.862;2022-08-25T09:35:24;12.65;;;2.80;;
24833;SDS011;12914;43.702;22.862;2022-08-25T09:38:00;11.68;;;2.92;;
24833;SDS011;12914;43.702;22.862;2022-08-25T09:40:32;15.68;;;3.35;;
24833;SDS011;12914;43.702;22.862;2022-08-25T09:43:00;19.95;;;4.13;;
24833;SDS011;12914;43.702;22.862;2022-08-25T09:45:38;13.02;;;3.10;;
24833;SDS011;12914;43.702;22.862;2022-08-25T09:48:19;23.27;;;3.90;;
24833;SDS011;12914;43.702;22.862;2022-08-25T09:50:57;17.98;;;3.15;;
24833;SDS011;12914;43.702;22.862;2022-08-25T09:53:26;20.90;;;3.50;;
24833;SDS011;12914;43.702;22.862;2022-08-25T09:56:03;18.75;;;4.03;;
24833;SDS011;12914;43.702;22.862;2022-08-25T09:58:31;19.67;;;4.88;;
24833;SDS011;12914;43.702;22.862;2022-08-25T10:01:12;23.42;;;5.70;;
24833;SDS011;12914;43.702;22.862;2022-08-25T10:04:01;17.52;;;3.78;;
24833;SDS011;12914;43.702;22.862;2022-08-25T10:06:32;13.73;;;3.97;;
24833;SDS011;12914;43.702;22.862;2022-08-25T10:09:09;15.32;;;3.92;;
24833;SDS011;12914;43.702;22.862;2022-08-25T10:11:47;16.17;;;3.65;;
24833;SDS011;12914;43.702;22.862;2022-08-25T10:16:51;19.15;;;4.10;;
24833;SDS011;12914;43.702;22.862;2022-08-25T10:19:28;13.38;;;3.58;;
24833;SDS011;12914;43.702;22.862;2022-08-25T10:22:27;13.73;;;4.50;;
24833;SDS011;12914;43.702;22.862;2022-08-25T10:24:48;16.48;;;4.25;;
24833;SDS011;12914;43.702;22.862;2022-08-25T10:32:47;19.55;;;4.78;;
24833;SDS011;12914;43.702;22.862;2022-08-25T10:41:19;14.63;;;4.25;;
24833;SDS011;12914;43.702;22.862;2022-08-25T10:44:06;16.90;;;4.13;;
24833;SDS011;12914;43.702;22.862;2022-08-25T10:47:21;17.70;;;4.28;;
24833;SDS011;12914;43.702;22.862;2022-08-25T10:49:54;19.63;;;5.05;;
24833;SDS011;12914;43.702;22.862;2022-08-25T10:52:28;15.90;;;4.03;;
24833;SDS011;12914;43.702;22.862;2022-08-25T10:57:52;14.43;;;4.30;;
24833;SDS011;12914;43.702;22.862;2022-08-25T11:00:25;16.23;;;4.18;;
24833;SDS011;12914;43.702;22.862;2022-08-25T11:06:13;12.68;;;4.28;;
24833;SDS011;12914;43.702;22.862;2022-08-25T11:08:52;13.80;;;4.60;;
24833;SDS011;12914;43.702;22.862;2022-08-25T11:16:44;14.35;;;3.88;;
24833;SDS011;12914;43.702;22.862;2022-08-25T11:19:22;26.90;;;4.60;;
24833;SDS011;12914;43.702;22.862;2022-08-25T11:24:54;26.38;;;4.50;;
24833;SDS011;12914;43.702;22.862;2022-08-25T11:30:22;17.48;;;4.63;;
24833;SDS011;12914;43.702;22.862;2022-08-25T11:32:51;20.15;;;4.50;;
24833;SDS011;12914;43.702;22.862;2022-08-25T11:35:24;15.85;;;3.65;;
24833;SDS011;12914;43.702;22.862;2022-08-25T11:37:58;11.70;;;4.97;;
24833;SDS011;12914;43.702;22.862;2022-08-25T11:43:54;12.85;;;3.72;;
24833;SDS011;12914;43.702;22.862;2022-08-25T11:49:41;20.08;;;5.07;;
24833;SDS011;12914;43.702;22.862;2022-08-25T11:57:51;17.00;;;4.18;;
24833;SDS011;12914;43.702;22.862;2022-08-25T12:00:40;19.58;;;4.60;;
24833;SDS011;12914;43.702;22.862;2022-08-25T12:08:48;16.13;;;4.85;;
24833;SDS011;12914;43.702;22.862;2022-08-25T12:21:52;11.15;;;3.63;;
24833;SDS011;12914;43.702;22.862;2022-08-25T12:24:21;15.88;;;3.75;;
24833;SDS011;12914;43.702;22.862;2022-08-25T12:30:12;20.65;;;4.30;;
24833;SDS011;12914;43.702;22.862;2022-08-25T12:41:03;15.38;;;2.90;;
24833;SDS011;12914;43.702;22.862;2022-08-25T12:43:36;13.77;;;3.67;;
24833;SDS011;12914;43.702;22.862;2022-08-25T12:51:43;14.18;;;3.35;;
24833;SDS011;12914;43.702;22.862;2022-08-25T12:54:21;12.80;;;2.97;;
24833;SDS011;12914;43.702;22.862;2022-08-25T13:00:21;13.95;;;2.75;;
24833;SDS011;12914;43.702;22.862;2022-08-25T13:11:16;15.32;;;2.88;;
24833;SDS011;12914;43.702;22.862;2022-08-25T13:13:52;10.88;;;3.22;;
24833;SDS011;12914;43.702;22.862;2022-08-25T13:16:26;12.57;;;3.03;;
24833;SDS011;12914;43.702;22.862;2022-08-25T13:18:53;14.57;;;3.65;;
24833;SDS011;12914;43.702;22.862;2022-08-25T13:23:55;11.20;;;2.40;;
24833;SDS011;12914;43.702;22.862;2022-08-25T13:26:30;9.10;;;2.53;;
24833;SDS011;12914;43.702;22.862;2022-08-25T13:31:31;8.15;;;2.53;;
24833;SDS011;12914;43.702;22.862;2022-08-25T13:34:02;11.68;;;3.10;;
24833;SDS011;12914;43.702;22.862;2022-08-25T13:36:32;12.75;;;3.03;;
24833;SDS011;12914;43.702;22.862;2022-08-25T13:39:20;16.52;;;3.17;;
24833;SDS011;12914;43.702;22.862;2022-08-25T13:41:50;8.88;;;2.78;;
24833;SDS011;12914;43.702;22.862;2022-08-25T13:44:18;11.85;;;3.05;;
24833;SDS011;12914;43.702;22.862;2022-08-25T13:46:46;6.82;;;3.00;;
24833;SDS011;12914;43.702;22.862;2022-08-25T13:49:23;20.25;;;3.58;;
24833;SDS011;12914;43.702;22.862;2022-08-25T13:51:51;11.30;;;2.95;;
24833;SDS011;12914;43.702;22.862;2022-08-25T13:54:37;13.63;;;3.30;;
24833;SDS011;12914;43.702;22.862;2022-08-25T13:59:53;10.25;;;3.20;;
24833;SDS011;12914;43.702;22.862;2022-08-25T14:02:46;11.73;;;3.00;;
24833;SDS011;12914;43.702;22.862;2022-08-25T14:05:13;13.02;;;3.42;;
24833;SDS011;12914;43.702;22.862;2022-08-25T14:07:51;14.85;;;4.47;;
24833;SDS011;12914;43.702;22.862;2022-08-25T14:15:37;18.98;;;3.40;;
24833;SDS011;12914;43.702;22.862;2022-08-25T14:21:10;12.98;;;3.78;;
24833;SDS011;12914;43.702;22.862;2022-08-25T14:23:36;16.27;;;3.88;;
24833;SDS011;12914;43.702;22.862;2022-08-25T14:26:03;16.08;;;3.40;;
24833;SDS011;12914;43.702;22.862;2022-08-25T14:28:29;8.02;;;3.10;;
24833;SDS011;12914;43.702;22.862;2022-08-25T14:31:00;8.98;;;3.10;;
24833;SDS011;12914;43.702;22.862;2022-08-25T14:36:21;16.63;;;3.10;;
24833;SDS011;12914;43.702;22.862;2022-08-25T14:38:46;16.40;;;3.10;;
24833;SDS011;12914;43.702;22.862;2022-08-25T14:41:12;15.98;;;3.78;;
24833;SDS011;12914;43.702;22.862;2022-08-25T14:43:38;14.05;;;3.60;;
24833;SDS011;12914;43.702;22.862;2022-08-25T14:46:06;20.45;;;3.25;;
24833;SDS011;12914;43.702;22.862;2022-08-25T14:48:40;17.38;;;3.42;;
24833;SDS011;12914;43.702;22.862;2022-08-25T14:51:08;13.73;;;3.65;;
24833;SDS011;12914;43.702;22.862;2022-08-25T14:53:35;14.23;;;3.40;;
24833;SDS011;12914;43.702;22.862;2022-08-25T14:56:01;13.82;;;3.10;;
24833;SDS011;12914;43.702;22.862;2022-08-25T14:58:27;12.32;;;3.33;;
24833;SDS011;12914;43.702;22.862;2022-08-25T15:00:53;22.02;;;3.22;;
24833;SDS011;12914;43.702;22.862;2022-08-25T15:03:20;9.55;;;2.92;;
24833;SDS011;12914;43.702;22.862;2022-08-25T15:06:02;18.42;;;4.05;;
24833;SDS011;12914;43.702;22.862;2022-08-25T15:08:29;12.70;;;2.95;;
24833;SDS011;12914;43.702;22.862;2022-08-25T15:11:13;13.90;;;3.72;;
24833;SDS011;12914;43.702;22.862;2022-08-25T15:13:39;19.95;;;3.45;;
24833;SDS011;12914;43.702;22.862;2022-08-25T15:16:05;19.75;;;3.65;;
24833;SDS011;12914;43.702;22.862;2022-08-25T15:18:32;14.95;;;3.10;;
24833;SDS011;12914;43.702;22.862;2022-08-25T15:20:58;13.95;;;4.30;;
24833;SDS011;12914;43.702;22.862;2022-08-25T15:23:24;14.70;;;3.20;;
24833;SDS011;12914;43.702;22.862;2022-08-25T15:25:49;16.90;;;2.80;;
24833;SDS011;12914;43.702;22.862;2022-08-25T15:28:18;10.23;;;2.85;;
24833;SDS011;12914;43.702;22.862;2022-08-25T15:30:45;16.13;;;3.40;;
24833;SDS011;12914;43.702;22.862;2022-08-25T15:33:11;10.15;;;3.35;;
24833;SDS011;12914;43.702;22.862;2022-08-25T15:35:37;19.00;;;3.58;;
24833;SDS011;12914;43.702;22.862;2022-08-25T15:38:02;12.90;;;3.00;;
24833;SDS011;12914;43.702;22.862;2022-08-25T15:40:28;13.55;;;3.13;;
24833;SDS011;12914;43.702;22.862;2022-08-25T15:42:54;14.50;;;2.90;;
24833;SDS011;12914;43.702;22.862;2022-08-25T15:45:20;19.52;;;3.03;;
24833;SDS011;12914;43.702;22.862;2022-08-25T15:47:45;17.02;;;3.85;;
24833;SDS011;12914;43.702;22.862;2022-08-25T15:50:15;20.50;;;4.55;;
24833;SDS011;12914;43.702;22.862;2022-08-25T15:52:43;16.38;;;3.92;;
24833;SDS011;12914;43.702;22.862;2022-08-25T15:55:09;14.95;;;3.15;;
24833;SDS011;12914;43.702;22.862;2022-08-25T15:57:36;15.45;;;3.42;;
24833;SDS011;12914;43.702;22.862;2022-08-25T16:00:04;20.80;;;3.53;;
24833;SDS011;12914;43.702;22.862;2022-08-25T16:02:32;11.15;;;3.00;;
24833;SDS011;12914;43.702;22.862;2022-08-25T16:04:59;14.25;;;3.28;;
24833;SDS011;12914;43.702;22.862;2022-08-25T16:07:25;15.68;;;3.17;;
24833;SDS011;12914;43.702;22.862;2022-08-25T16:09:53;12.38;;;3.00;;
24833;SDS011;12914;43.702;22.862;2022-08-25T16:12:20;17.47;;;3.17;;
24833;SDS011;12914;43.702;22.862;2022-08-25T16:14:46;12.90;;;3.22;;
24833;SDS011;12914;43.702;22.862;2022-08-25T16:17:11;12.05;;;3.35;;
24833;SDS011;12914;43.702;22.862;2022-08-25T16:19:38;13.50;;;3.38;;
24833;SDS011;12914;43.702;22.862;2022-08-25T16:22:04;16.80;;;3.53;;
24833;SDS011;12914;43.702;22.862;2022-08-25T16:24:30;16.70;;;3.72;;
24833;SDS011;12914;43.702;22.862;2022-08-25T16:26:56;15.73;;;3.13;;
24833;SDS011;12914;43.702;22.862;2022-08-25T16:29:29;14.73;;;4.30;;
24833;SDS011;12914;43.702;22.862;2022-08-25T16:31:55;18.73;;;3.55;;
24833;SDS011;12914;43.702;22.862;2022-08-25T16:34:22;13.38;;;3.15;;
24833;SDS011;12914;43.702;22.862;2022-08-25T16:36:49;17.92;;;4.50;;
24833;SDS011;12914;43.702;22.862;2022-08-25T16:39:15;12.38;;;3.95;;
24833;SDS011;12914;43.702;22.862;2022-08-25T16:41:40;13.88;;;3.50;;
24833;SDS011;12914;43.702;22.862;2022-08-25T16:44:06;22.15;;;3.72;;
24833;SDS011;12914;43.702;22.862;2022-08-25T16:46:32;18.25;;;4.72;;
24833;SDS011;12914;43.702;22.862;2022-08-25T16:49:01;20.48;;;3.78;;